Latest Weather Observations for Albany Airport

IDW60801

Issued at 3:32 pm WST Friday 27 February 2015 (issued every 30 minutes, with the page automatically refreshed every 10 minutes)

About weather observations | Map of weather stations | Latest weather observations for WA | Other Formats
Station Details ID: 009999 Name: ALBANY AIRPORT Lat: -34.94 Lon: 117.82 Height: 68.4 m
Data from the previous 72 hours. | See also: Recent months at Albany Airport
Date/Time
WST
Temp
°C
App
Temp
°C
Dew
Point
Rel
Hum
%
Delta-T
°C
Wind Press
QNH
hPa
Press
MSL
hPa
Rain
since 9 am
mm
Dir
 
Spd
km/h
Gust
km/h
Spd
kts
Gust
kts
27/03:30pm 23.1 20.0 13.3 54 5.7 SW 22 32 12 17 1010.0 - 0.0
27/03:00pm 22.6 19.5 13.3 55 5.4 SSW 22 32 12 17 1009.8 1009.7 0.0
27/02:30pm 22.6 18.7 13.3 55 5.4 SW 26 35 14 19 1009.7 - 0.0
27/02:00pm 22.5 19.4 14.6 61 4.7 SSW 24 32 13 17 1009.7 - 0.0
27/01:30pm 22.8 20.3 14.1 58 5.1 SW 20 33 11 18 1009.7 - 0.0
27/01:00pm 22.9 20.2 13.6 55 5.4 SSW 20 28 11 15 1009.6 - 0.0
27/12:30pm 22.1 19.0 13.3 57 5.1 SSW 22 30 12 16 1009.6 - 0.0
27/12:00pm 21.5 19.1 14.3 63 4.2 SSW 20 28 11 15 1009.5 1009.4 0.0
27/11:30am 21.4 19.4 15.0 67 3.8 S 19 26 10 14 1009.3 - 0.0
27/10:30am 20.5 18.9 16.0 75 2.7 S 19 26 10 14 1009.0 - 0.0
27/10:00am 19.3 17.8 16.3 83 1.8 SSW 19 26 10 14 1009.0 - 0.0
27/09:30am 18.7 18.2 16.9 89 1.1 S 15 22 8 12 1008.8 - 0.0
27/09:00am 18.4 18.0 17.1 92 0.8 SSW 15 22 8 12 1008.6 1008.5 26.6
27/08:30am 17.9 18.0 17.4 97 0.3 S 13 17 7 9 1008.2 - 26.6
27/08:00am 17.6 16.8 17.1 97 0.3 S 17 24 9 13 1007.8 - 26.4
27/07:30am 17.6 15.9 17.3 98 0.2 SSW 22 33 12 18 1007.5 - 26.4
27/07:00am 18.4 18.4 18.1 98 0.2 S 15 24 8 13 1007.0 - 25.8
27/06:30am 18.8 19.7 18.5 98 0.2 S 11 13 6 7 1006.5 - 25.0
27/05:30am 19.1 20.6 18.9 99 0.1 S 9 17 5 9 1005.8 - 24.6
27/05:20am 19.1 21.0 18.9 99 0.1 SSE 7 11 4 6 1005.8 - 24.6
27/05:16am 19.2 21.1 18.9 98 0.2 SSE 7 9 4 5 1005.7 - 24.6
27/05:00am 19.2 20.3 18.9 98 0.2 S 11 17 6 9 1005.6 - 24.6
27/04:49am 19.2 20.7 19.0 99 0.1 S 9 13 5 7 1005.7 - 24.2
27/04:48am 19.2 20.7 19.0 99 0.1 S 9 13 5 7 1005.7 - 24.2
27/04:30am 19.2 20.4 19.0 99 0.1 S 11 15 6 8 1005.5 - 24.2
27/04:03am 19.3 20.9 19.1 99 0.1 S 9 15 5 8 1005.5 - 24.2
27/04:00am 19.3 20.9 19.1 99 0.1 S 9 15 5 8 1005.5 - 24.2
27/03:57am 19.4 21.4 19.1 98 0.2 S 7 11 4 6 1005.6 - 24.2
27/03:38am 19.3 21.3 19.1 99 0.1 S 7 9 4 5 1005.6 - 24.2
27/03:30am 19.3 21.2 19.0 98 0.2 S 7 11 4 6 1005.5 - 24.2
27/03:00am 19.3 21.8 19.1 99 0.1 SSW 4 6 2 3 1005.9 1005.8 24.2
27/02:30am 19.2 21.7 19.0 99 0.1 S 4 7 2 4 1005.5 - 24.2
27/02:00am 19.2 21.3 19.0 99 0.1 SSE 6 9 3 5 1005.9 - 24.2
27/01:43am 19.2 21.3 19.0 99 0.1 S 6 9 3 5 1006.2 - 24.2
27/01:30am 19.2 21.3 19.0 99 0.1 S 6 7 3 4 1006.1 - 24.2
27/01:26am 19.2 21.3 19.0 99 0.1 S 6 9 3 5 1006.2 - 24.2
27/01:19am 19.2 21.1 19.0 99 0.1 S 7 11 4 6 1006.3 - 23.8
27/01:09am 19.2 20.7 19.0 99 0.1 SSW 9 11 5 6 1006.5 - 23.8
27/01:00am 19.2 20.7 19.0 99 0.1 ESE 9 11 5 6 1006.3 - 23.4
27/12:50am 19.2 20.7 18.9 98 0.2 ESE 9 11 5 6 1006.0 - 23.2
27/12:30am 19.2 20.4 19.0 99 0.1 NNE 11 15 6 8 1006.5 - 23.2
27/12:24am 19.3 20.8 19.0 98 0.2 N 9 15 5 8 1007.4 - 20.2
27/12:13am 19.2 20.3 18.9 98 0.2 E 11 17 6 9 1006.3 - 19.2
27/12:00am 19.2 21.3 18.9 98 0.2 E 6 15 3 8 1006.0 1005.9 19.2
 
Date/Time
WST
Temp
°C
App
Temp
°C
Dew
Point
Rel
Hum
%
Delta-T
°C
Wind Press
QNH
hPa
Press
MSL
hPa
Rain
since 9 am
mm
Dir
 
Spd
km/h
Gust
km/h
Spd
kts
Gust
kts
26/11:39pm 19.1 21.0 18.9 99 0.1 E 7 11 4 6 1006.8 - 14.4
26/11:30pm 19.1 20.6 18.9 99 0.1 E 9 13 5 7 1006.7 - 13.2
26/11:20pm 19.1 20.6 18.8 98 0.2 ESE 9 13 5 7 1007.3 - 13.2
26/11:00pm 19.1 20.9 18.8 98 0.2 ESE 7 15 4 8 1007.0 - 13.0
26/10:56pm 19.1 20.6 18.8 98 0.2 ESE 9 17 5 9 1007.4 - 12.4
26/10:30pm 19.3 19.7 19.1 99 0.1 ESE 15 19 8 10 1006.9 - 11.8
26/10:00pm 19.4 20.2 19.1 98 0.2 ESE 13 19 7 10 1007.4 - 11.8
26/09:30pm 19.6 20.8 19.1 97 0.3 ESE 11 17 6 9 1007.3 - 11.8
26/09:00pm 19.6 20.4 19.1 97 0.3 S 13 17 7 9 1008.6 1008.5 11.8
26/08:30pm 19.7 20.9 19.1 96 0.4 E 11 13 6 7 1007.9 - 11.8
26/08:00pm 19.8 20.6 19.0 95 0.5 SE 13 17 7 9 1007.3 - 11.6
26/07:30pm 19.9 20.3 19.1 95 0.5 SE 15 20 8 11 1006.8 - 11.6
26/07:00pm 19.9 20.0 19.1 95 0.5 SE 17 20 9 11 1006.8 - 11.6
26/06:30pm 20.1 20.2 19.2 95 0.6 SE 17 20 9 11 1006.9 - 11.6
26/06:00pm 20.6 21.5 19.3 92 0.8 SSE 13 17 7 9 1006.9 1006.8 11.6
26/05:30pm 21.1 22.5 19.5 90 1.0 SSE 11 15 6 8 1006.6 - 11.6
26/05:00pm 21.6 23.2 19.9 90 1.1 SE 11 15 6 8 1006.4 - 11.6
26/04:30pm 21.0 22.4 19.6 92 0.9 SE 11 13 6 7 1006.5 - 11.6
26/04:00pm 20.9 22.3 19.6 92 0.8 E 11 15 6 8 1006.5 - 11.6
26/03:30pm 20.5 21.1 19.4 93 0.7 E 15 19 8 10 1006.0 - 11.6
26/03:00pm 20.1 21.0 19.3 95 0.5 E 13 19 7 10 1006.4 1006.3 11.6
26/02:30pm 20.1 20.4 19.6 97 0.3 E 17 22 9 12 1007.0 - 11.6
26/02:11pm 19.7 19.4 19.2 97 0.3 E 19 24 10 13 1007.1 - 11.6
26/02:00pm 19.3 19.2 18.8 97 0.3 E 17 24 9 13 1007.5 - 11.4
26/01:52pm 19.2 19.9 18.9 98 0.2 E 13 19 7 10 1007.7 - 11.2
26/01:30pm 19.3 20.8 18.8 97 0.3 NNW 9 13 5 7 1009.5 - 10.0
26/01:00pm 19.4 21.1 18.6 95 0.5 SSE 7 11 4 6 1008.8 - 6.0
26/12:43pm 19.7 21.4 18.4 92 0.8 E 7 13 4 7 1008.9 - 1.4
26/12:30pm 19.8 18.5 18.2 90 1.0 ENE 22 32 12 17 1007.3 - 1.0
26/12:00pm 20.5 21.2 18.9 90 1.0 SE 13 19 7 10 1008.4 1008.3 1.0
26/11:44am 19.6 18.9 18.3 92 0.8 E 19 24 10 13 1008.4 - 1.0
26/11:37am 19.6 18.1 18.5 93 0.7 E 24 37 13 20 1008.5 - 1.0
26/11:30am 19.5 18.3 18.5 94 0.6 E 22 37 12 20 1006.7 - 1.0
26/11:25am 19.5 18.9 18.4 93 0.7 E 19 30 10 16 1008.0 - 1.0
26/11:00am 19.7 21.5 18.3 92 0.9 NE 6 7 3 4 1010.8 - 0.6
26/10:48am 19.6 21.1 18.1 91 0.9 NE 7 11 4 6 1011.0 - 0.4
26/10:30am 19.6 20.3 18.0 90 1.0 ENE 11 15 6 8 1010.9 - 0.2
26/10:00am 19.9 19.4 17.8 88 1.3 E 17 24 9 13 1009.9 - 0.0
26/09:30am 19.9 18.7 17.1 84 1.7 E 19 24 10 13 1009.7 - 0.0
26/09:00am 19.9 18.7 17.1 84 1.7 E 19 24 10 13 1010.0 1009.9 0.0
26/08:30am 19.9 19.5 17.1 84 1.7 ESE 15 19 8 10 1011.0 - 0.0
26/08:00am 19.7 19.7 17.1 85 1.6 ESE 13 17 7 9 1011.3 - 0.0
26/07:36am 19.7 17.9 16.9 84 1.7 E 22 32 12 17 1010.0 - 0.0
26/07:30am 19.6 17.1 17.0 85 1.6 E 26 32 14 17 1009.6 - 0.0
26/07:00am 19.3 19.2 17.0 86 1.4 SE 13 17 7 9 1010.4 - 0.0
26/06:30am 18.5 17.1 16.5 88 1.2 WSW 19 22 10 12 1011.4 - 0.0
26/06:00am 18.2 19.1 16.5 90 1.0 ESE 7 9 4 5 1009.9 1009.8 0.0
26/05:30am 17.9 18.2 16.1 89 1.1 ENE 9 11 5 6 1009.4 - 0.0
26/05:00am 17.5 17.7 15.8 90 1.0 E 9 13 5 7 1009.2 - 0.0
26/04:30am 17.1 17.2 15.6 91 0.9 NE 9 11 5 6 1009.4 - 0.0
26/04:00am 17.6 18.2 15.9 90 1.0 NE 7 11 4 6 1009.5 - 0.0
26/03:30am 18.4 18.1 16.4 88 1.2 E 13 17 7 9 1009.6 - 0.0
26/03:11am 17.6 17.8 15.7 89 1.1 E 9 11 5 6 1009.5 - 0.0
26/03:00am 17.5 17.6 15.6 89 1.1 ESE 9 13 5 7 1009.5 1009.4 0.0
26/02:30am 17.6 17.0 15.6 88 1.2 SE 13 17 7 9 1009.3 - 0.0
26/02:00am 17.8 16.7 15.4 86 1.4 E 15 20 8 11 1010.0 - 0.0
26/01:30am 17.4 17.3 15.0 86 1.4 NE 9 13 5 7 1010.9 - 0.0
26/01:00am 17.4 16.9 15.0 86 1.4 ENE 11 19 6 10 1010.8 - 0.0
26/12:30am 17.4 17.2 14.8 85 1.5 SE 9 13 5 7 1010.8 - 0.0
26/12:00am 17.8 16.4 14.5 81 1.9 ESE 15 20 8 11 1010.9 1010.8 0.0
 
Date/Time
WST
Temp
°C
App
Temp
°C
Dew
Point
Rel
Hum
%
Delta-T
°C
Wind Press
QNH
hPa
Press
MSL
hPa
Rain
since 9 am
mm
Dir
 
Spd
km/h
Gust
km/h
Spd
kts
Gust
kts
25/11:30pm 17.8 16.8 14.5 81 1.9 ENE 13 17 7 9 1011.6 - 0.0
25/11:00pm 17.4 15.6 14.5 83 1.7 E 17 20 9 11 1011.3 - 0.0
25/10:30pm 17.3 17.3 14.3 82 1.7 E 7 9 4 5 1012.4 - 0.0
25/10:00pm 17.4 16.8 14.5 83 1.7 ENE 11 15 6 8 1012.7 - 0.0
25/09:30pm 17.6 16.5 14.3 81 1.9 E 13 17 7 9 1013.0 - 0.0
25/09:00pm 18.0 16.6 14.4 79 2.1 E 15 20 8 11 1012.3 1012.1 0.0
25/08:30pm 18.2 16.3 14.2 77 2.3 ESE 17 20 9 11 1012.5 - 0.0
25/08:00pm 18.6 16.3 14.6 77 2.3 ESE 20 28 11 15 1012.4 - 0.0
25/07:30pm 18.7 16.5 14.8 78 2.3 ESE 20 24 11 13 1012.3 - 0.0
25/07:00pm 19.1 16.9 14.5 74 2.7 SE 19 24 10 13 1011.8 - 0.0
25/06:30pm 19.5 17.1 14.5 73 2.9 SE 20 28 11 15 1011.2 - 0.0
25/06:00pm 20.0 17.4 14.9 72 3.0 SE 22 30 12 16 1011.0 1010.9 0.0
25/05:30pm 20.6 18.5 15.2 71 3.2 SE 20 28 11 15 1011.1 - 0.0
25/05:00pm 20.7 17.9 15.3 71 3.2 SE 24 30 13 16 1011.0 - 0.0
25/04:30pm 21.5 19.1 15.5 68 3.6 ESE 22 30 12 16 1011.1 - 0.0
25/04:00pm 22.1 19.9 15.0 64 4.2 SE 20 28 11 15 1011.1 - 0.0
25/03:30pm 22.5 20.4 15.1 63 4.4 ESE 20 26 11 14 1010.9 - 0.0
25/03:00pm 22.3 20.2 15.3 64 4.2 SSE 20 28 11 15 1010.8 1010.7 0.0
25/02:30pm 22.4 20.6 15.4 64 4.2 SE 19 26 10 14 1011.1 - 0.0
25/02:00pm 22.7 21.3 15.6 64 4.3 SE 17 22 9 12 1011.2 - 0.0
25/01:30pm 22.6 20.9 15.8 65 4.1 SSE 19 24 10 13 1011.3 - 0.0
25/01:00pm 22.9 21.3 16.0 65 4.2 SSE 19 28 10 15 1011.3 - 0.0
25/12:30pm 24.1 22.3 16.1 61 4.9 SE 20 26 11 14 1011.3 - 0.0
25/12:00pm 23.5 22.4 15.4 60 4.9 SSE 15 20 8 11 1011.4 1011.3 0.0
25/11:30am 23.5 22.5 15.7 61 4.7 SE 15 24 8 13 1011.8 - 0.0
25/11:00am 22.9 22.5 16.2 66 4.1 SE 13 20 7 11 1012.1 - 0.0
25/10:30am 22.4 22.0 16.3 68 3.7 SE 13 19 7 10 1012.1 - 0.0
25/10:00am 21.8 21.1 15.4 67 3.8 SE 13 19 7 10 1012.1 - 0.0
25/09:30am 21.5 21.2 16.4 72 3.1 SSE 13 20 7 11 1012.0 - 0.0
25/09:00am 20.5 20.8 16.9 80 2.2 SSE 11 15 6 8 1012.3 1012.1 0.0
25/08:30am 20.7 20.9 16.8 78 2.4 SE 11 17 6 9 1012.1 - 0.0
25/08:00am 20.3 20.3 17.2 82 1.9 S 13 17 7 9 1011.7 - 0.0
25/07:28am 20.2 21.0 17.4 84 1.7 S 9 13 5 7 1011.4 - 0.0
25/07:00am 19.8 19.8 17.2 85 1.6 S 13 17 7 9 1011.2 - 0.0
25/06:30am 19.6 19.7 17.5 88 1.3 S 13 20 7 11 1010.0 - 0.0
25/06:00am 19.4 20.5 18.1 92 0.8 S 9 13 5 7 1009.8 1009.7 0.0
25/05:50am 19.3 20.4 18.0 92 0.8 SSW 9 13 5 7 1010.1 - 0.0
25/05:30am 19.3 19.9 17.8 91 0.9 SW 11 15 6 8 1010.2 - 0.0
25/05:29am 19.3 19.9 17.8 91 0.9 SW 11 15 6 8 1010.2 - 0.0
25/05:00am 19.3 20.7 17.7 90 1.0 S 7 13 4 7 1009.6 - 0.0
25/04:36am 18.6 20.0 17.3 92 0.8 S 6 13 3 7 1009.2 - 0.0
25/04:30am 18.1 20.4 16.8 92 0.8 CALM 0 6 0 3 1008.9 - 0.0
25/04:08am 18.8 19.9 17.0 89 1.1 ESE 7 9 4 5 1008.6 - 0.0
25/04:00am 19.5 21.0 17.5 88 1.2 SSE 6 7 3 4 1008.9 - 0.0
25/03:30am 19.9 20.5 17.8 88 1.3 SW 11 15 6 8 1009.6 - 0.0
25/03:00am 20.0 20.3 17.9 88 1.3 WSW 13 19 7 10 1009.7 1009.6 0.0
25/02:30am 19.9 20.4 18.3 90 1.0 SW 13 17 7 9 1008.9 - 0.0
25/02:00am 20.0 20.5 18.4 90 1.0 SSW 13 20 7 11 1008.8 - 0.0
25/01:30am 20.1 20.7 18.5 90 1.0 SW 13 17 7 9 1009.1 - 0.0
25/01:00am 20.2 20.4 18.6 90 1.0 SW 15 20 8 11 1008.7 - 0.0
25/12:30am 20.6 22.1 18.9 90 1.1 WSW 9 13 5 7 1009.1 - 0.0
25/12:04am 20.4 21.5 18.8 90 1.0 SW 11 17 6 9 1008.4 - 0.0
25/12:00am 20.3 20.9 18.7 90 1.0 SW 13 17 7 9 1008.3 1008.2 0.0
 
Date/Time
WST
Temp
°C
App
Temp
°C
Dew
Point
Rel
Hum
%
Delta-T
°C
Wind Press
QNH
hPa
Press
MSL
hPa
Rain
since 9 am
mm
Dir
 
Spd
km/h
Gust
km/h
Spd
kts
Gust
kts
24/11:30pm 20.4 21.1 18.0 86 1.5 WSW 11 13 6 7 1007.7 - 0.0
24/11:00pm 20.7 21.2 17.5 82 2.0 SW 11 17 6 9 1007.8 - 0.0
24/10:30pm 20.6 21.9 17.5 82 1.9 SSW 7 11 4 6 1008.0 - 0.0
24/10:00pm 20.9 21.2 17.0 78 2.4 SW 11 15 6 8 1008.1 - 0.0
24/09:30pm 21.9 22.0 16.5 71 3.3 SSW 11 13 6 7 1009.0 - 0.0
24/09:00pm 23.0 23.4 16.3 66 4.1 N 9 15 5 8 1009.7 1009.6 0.0
24/08:30pm 22.7 22.9 16.7 69 3.7 NE 11 17 6 9 1010.1 - 0.0
24/08:00pm 21.7 22.3 16.8 73 3.0 E 9 11 5 6 1008.8 - 0.0
24/07:30pm 23.0 23.5 16.5 67 4.0 ESE 9 11 5 6 1008.2 - 0.0
24/07:00pm 24.2 24.7 16.6 62 4.7 SE 9 13 5 7 1007.7 - 0.0
24/06:30pm 25.5 26.0 16.6 58 5.5 S 9 11 5 6 1007.7 - 0.0
24/06:00pm 26.4 26.0 16.2 53 6.3 SE 13 17 7 9 1007.2 1007.1 0.0
24/05:30pm 27.1 26.3 16.1 51 6.8 SSE 15 17 8 9 1007.1 - 0.0
24/05:00pm 28.3 27.9 16.1 47 7.6 SE 13 19 7 10 1007.0 - 0.0
24/04:30pm 28.4 27.3 16.4 48 7.5 SSE 17 24 9 13 1007.2 - 0.0
24/04:00pm 29.4 28.4 16.5 45 8.1 SE 17 24 9 13 1006.8 - 0.0

Other Formats:

Comma delimited format used in spreadsheet applications
http://www.bom.gov.au/fwo/IDW60801/IDW60801.94802.axf

JavaScript Object Notation format (JSON) in row-major order
http://www.bom.gov.au/fwo/IDW60801/IDW60801.94802.json